AirNav   Duncan Aviation - Near you to keep you flying
 
 1624 users online  

33CA Sonora Regional Medical Center Heliport
Sonora, California, USA

GOING TO SONORA?


FAA INFORMATION EFFECTIVE 30 DECEMBER 2021

Location

FAA Identifier: 33CA
Lat/Long: 37-58-37.4100N 120-22-18.9800W
37-58.623500N 120-22.316333W
37.9770583,-120.3719389
(estimated)
Elevation: 2085 ft. / 636 m (estimated)
From city: 1 mile SE of SONORA, CA
Time zone: UTC -8 (UTC -7 during Daylight Saving Time)
Zip code: 95370

Heliport Operations

Heliport use: Private use. Permission required prior to landing
Activation date: 10/2019
Control tower: no
ARTCC: OAKLAND CENTER
FSS: RANCHO MURIETA FLIGHT SERVICE STATION
Attendance: 
Wind indicator: no
Segmented circle: no

Heliport Communications

WX AWOS-3 at O22 (4 nm NW): 124.65 (209-536-9384)
WX AWOS-3P at CPU (17 nm NW): 118.525 (209-736-2523)

Nearby radio navigation aids

VOR radial/distance  VOR name  Freq  Var
LINr084/30.4LINDEN VOR/DME114.8017E
MODr036/34.8MODESTO VOR/DME114.6017E

Heliport Services

Runway Information

Helipad H1

Dimensions: 50 x 50 ft. / 15 x 15 m
Surface: asphalt/concrete
Latitude: 37-58.623500N
Longitude: 120-22.316333W
Elevation: 2085.0 ft.
Traffic pattern: leftleft

Heliport Ownership and Management from official FAA records

Ownership: Privately-owned
Owner: ADVENTIST HEALTH
2100 DOUGLAS BLVD
ROSEVILLE, CA 95661
Phone 916-781-2000
Manager: NICK BOYCE
1000 GREENLEY ROAD
SONORA, CA 95370
Phone 209-536-3881

Heliport Operational Statistics

Aircraft based on the field: 1
Helicopters: 1
    

Instrument Procedures

There are no published instrument procedures at 33CA.

Some nearby airports with instrument procedures:

O22 - Columbia Airport (4 nm NW)
E45 - Pine Mountain Lake Airport (11 nm SE)
KCPU - Calaveras County Airport - Maury Rasmussen Field (17 nm NW)
O27 - Oakdale Airport (24 nm SW)
KJAQ - Westover Field / Amador County Airport (31 nm NW)
 
Loc | Ops | Rwys | IFR | FBO | Links
Com | Nav | Svcs | Stats | Notes
Aerial photo
No photo
 
Airport distance calculator
Flying to Sonora Regional Medical Center Heliport? Find the distance to fly.

From to 33CA

Sunrise and sunset
Times for 20-Jan-2022
 Local
(UTC-8)
 Zulu
(UTC)
Morning civil twilight06:4714:47
Sunrise07:1515:15
Sunset17:1001:10
Evening civil twilight17:3901:39

Current date and time
Zulu (UTC)  20-Jan-2022 22:50:19
Local (UTC-8)  20-Jan-2022 14:50:19
 
METAR
KO22 
4nm NW 
202235Z AUTO 00000KT 10SM CLR 17/04 A3026 RMK A01
KCPU 
17nm NW 
202235Z AUTO 00000KT 10SM 17/06 A3027 RMK AO2 T01730057
TAF
KMOD 
35nm SW 
201724Z 2018/2118 VRB04KT 4SM BR SCT250 FM202000 VRB05KT P6SM SCT250 FM210900 VRB02KT 2SM BR SCT250
KMER 
37nm S 
201720Z 2018/2118 00000KT 1SM BR FEW250 FM201900 14004KT 3SM BR SKC FM202100 14005KT 6SM HZ SKC FM210600 VRB03KT 4SM BR SKC FM211100 34004KT 1SM BR SKC
KSCK 
40nm W 
201127Z 2012/2112 VRB03KT 2SM BR SCT250 TEMPO 2013/2017 1/4SM FG VV003 FM201800 VRB04KT 4SM BR SCT250 FM202000 VRB05KT P6SM SCT250 FM210900 VRB02KT 2SM BR SCT250
KMCE 
42nm S 
201720Z 2018/2118 15003KT 3SM BR FEW250 FM202100 14005KT 6SM HZ SKC FM210600 VRB03KT 4SM BR SKC FM211100 34004KT 2SM BR SKC
NOTAMs
Click for the latest NOTAMs
NOTAMs are issued by the DoD/FAA and will open in a separate window not controlled by AirNav.

 

 
 

Would you like to see your business listed on this page?

 If your business provides an interesting product or service to pilots, flight crews, aircraft, or users of the Sonora Regional Medical Center Heliport, you should consider listing it here.  To start the listing process, click on the button below
 
Add a business
 

Other Pages about Sonora Regional Medical Center Heliport

Update a link
 
Copyright © AirNav, LLC. All rights reserved. Privacy Policy  Contact